createdAt,value
2023-05-14T00:02:04.502Z,6.97
2023-05-14T00:04:32.240Z,7.10
2023-05-14T00:06:59.804Z,6.93
2023-05-14T00:09:27.312Z,7.47
2023-05-14T00:11:54.795Z,6.68
2023-05-14T00:14:22.447Z,6.50
2023-05-14T00:16:50.628Z,6.93
2023-05-14T00:19:18.220Z,6.47
2023-05-14T00:21:47.614Z,6.22
2023-05-14T00:24:15.310Z,6.82
2023-05-14T00:26:42.801Z,6.57
2023-05-14T00:29:10.567Z,7.18
2023-05-14T00:31:38.138Z,7.10
2023-05-14T00:34:05.768Z,6.65
2023-05-14T00:36:33.299Z,6.57
2023-05-14T00:39:00.852Z,6.57
2023-05-14T00:41:28.440Z,6.10
2023-05-14T00:43:55.922Z,6.28
2023-05-14T00:46:24.021Z,6.50
2023-05-14T00:48:51.750Z,6.07
2023-05-14T00:51:19.716Z,6.82
2023-05-14T00:53:48.685Z,6.97
2023-05-14T00:56:16.511Z,6.78
2023-05-14T00:58:44.200Z,6.40
2023-05-14T01:01:14.987Z,6.50
2023-05-14T01:03:43.260Z,5.57
2023-05-14T01:06:55.417Z,6.05
2023-05-14T01:09:39.258Z,6.43
2023-05-14T01:12:26.054Z,6.40
2023-05-14T01:15:19.766Z,6.00
2023-05-14T01:17:54.295Z,6.47
2023-05-14T01:20:22.520Z,6.40
2023-05-14T01:22:50.255Z,5.88
2023-05-14T01:25:18.086Z,6.63
2023-05-14T01:28:03.804Z,6.88
2023-05-14T01:30:43.851Z,5.95
2023-05-14T01:33:16.034Z,6.30
2023-05-14T01:35:44.365Z,5.70
2023-05-14T01:38:17.723Z,6.68
2023-05-14T01:40:46.870Z,7.07
2023-05-14T01:43:15.971Z,6.47
2023-05-14T01:45:44.326Z,5.70
2023-05-14T01:48:11.940Z,6.10
2023-05-14T01:50:39.511Z,6.97
2023-05-14T01:53:07.030Z,6.35
2023-05-14T01:55:34.549Z,6.88
2023-05-14T01:58:02.219Z,5.88
2023-05-14T02:00:29.733Z,6.43
2023-05-14T02:02:58.532Z,6.10
2023-05-14T02:05:26.111Z,5.32
2023-05-14T02:07:55.093Z,6.50
2023-05-14T02:10:22.837Z,6.60
2023-05-14T02:12:50.749Z,6.23
2023-05-14T02:15:18.422Z,6.20
2023-05-14T02:17:46.026Z,6.40
2023-05-14T02:20:13.728Z,5.93
2023-05-14T02:22:45.466Z,6.88
2023-05-14T02:25:13.120Z,6.40
2023-05-14T02:27:40.658Z,5.33
2023-05-14T02:30:09.208Z,5.97
2023-05-14T02:32:37.953Z,6.05
2023-05-14T02:35:06.346Z,5.90
2023-05-14T02:37:34.768Z,6.27
2023-05-14T02:40:02.309Z,6.33
2023-05-14T02:42:30.040Z,5.37
2023-05-14T02:44:57.567Z,5.60
2023-05-14T02:47:25.132Z,7.03
2023-05-14T02:49:52.702Z,5.83
2023-05-14T02:52:21.576Z,6.10
2023-05-14T02:54:49.099Z,5.53
2023-05-14T02:57:16.678Z,6.10
2023-05-14T02:59:44.181Z,6.00
2023-05-14T03:02:12.092Z,6.03
2023-05-14T03:04:40.333Z,5.50
2023-05-14T03:07:07.840Z,5.63
2023-05-14T03:09:37.386Z,5.80
2023-05-14T03:12:07.392Z,5.80
2023-05-14T03:14:34.906Z,6.10
2023-05-14T03:17:03.548Z,6.00
2023-05-14T03:19:31.180Z,5.60
2023-05-14T03:21:58.778Z,5.63
2023-05-14T03:24:26.246Z,5.82
2023-05-14T03:26:53.942Z,5.70
2023-05-14T03:29:21.416Z,5.93
2023-05-14T03:31:49.912Z,6.13
2023-05-14T03:34:17.497Z,5.77
2023-05-14T03:36:45.028Z,5.57
2023-05-14T03:39:15.356Z,5.70
2023-05-14T03:41:42.878Z,6.25
2023-05-14T03:44:10.896Z,6.22
2023-05-14T03:46:38.427Z,6.20
2023-05-14T03:49:07.939Z,5.75
2023-05-14T03:51:35.754Z,6.28
2023-05-14T03:54:06.367Z,6.47
2023-05-14T03:56:33.869Z,5.67
2023-05-14T03:59:01.382Z,5.80
2023-05-14T04:01:28.926Z,6.07
2023-05-14T04:03:58.822Z,5.70
2023-05-14T04:06:26.406Z,6.13
2023-05-14T04:08:53.909Z,5.97
2023-05-14T04:11:21.516Z,6.43
2023-05-14T04:13:50.186Z,6.13
2023-05-14T04:16:18.989Z,6.07
2023-05-14T04:18:46.587Z,5.45
2023-05-14T04:21:14.226Z,5.68
2023-05-14T04:23:42.062Z,5.90
2023-05-14T04:26:09.565Z,6.35
2023-05-14T04:28:37.112Z,5.78
2023-05-14T04:31:04.707Z,6.07
2023-05-14T04:33:32.223Z,6.57
2023-05-14T04:35:59.772Z,5.65
2023-05-14T04:38:28.059Z,6.07
2023-05-14T04:40:55.584Z,6.13
2023-05-14T04:43:23.074Z,5.72
2023-05-14T04:45:52.344Z,6.57
2023-05-14T04:48:19.828Z,5.80
2023-05-14T04:50:47.388Z,6.32
2023-05-14T04:53:14.867Z,5.70
2023-05-14T04:55:42.400Z,6.55
2023-05-14T04:58:09.882Z,6.68
2023-05-14T05:00:37.468Z,6.70
2023-05-14T05:03:04.997Z,6.32
2023-05-14T05:05:32.534Z,6.45
2023-05-14T05:08:00.059Z,6.50
2023-05-14T05:10:27.590Z,6.50
2023-05-14T05:12:55.191Z,7.00
2023-05-14T05:15:23.686Z,6.78
2023-05-14T05:17:52.847Z,6.43
2023-05-14T05:20:20.534Z,7.00
2023-05-14T05:22:48.142Z,6.45
2023-05-14T05:25:15.682Z,5.95
2023-05-14T05:27:43.201Z,6.60
2023-05-14T05:30:11.435Z,5.97
2023-05-14T05:32:39.083Z,6.97
2023-05-14T05:35:07.063Z,6.30
2023-05-14T05:37:34.546Z,6.40
2023-05-14T05:40:02.038Z,6.27
2023-05-14T05:42:29.686Z,6.57
2023-05-14T05:44:57.244Z,6.57
2023-05-14T05:47:24.797Z,6.88
2023-05-14T05:49:53.783Z,7.03
2023-05-14T05:52:21.350Z,6.72
2023-05-14T05:54:48.835Z,5.88
2023-05-14T05:57:16.364Z,6.80
2023-05-14T05:59:43.890Z,6.40
2023-05-14T06:02:11.484Z,7.15
2023-05-14T06:04:38.981Z,7.18
2023-05-14T06:07:06.480Z,6.97
2023-05-14T06:09:33.993Z,7.63
2023-05-14T06:12:01.530Z,7.30
2023-05-14T06:14:29.134Z,7.57
2023-05-14T06:16:56.748Z,7.37
2023-05-14T06:19:24.575Z,6.70
2023-05-14T06:21:52.069Z,7.65
2023-05-14T06:24:20.340Z,8.33
2023-05-14T06:26:49.173Z,6.68
2023-05-14T06:29:16.729Z,7.22
2023-05-14T06:31:44.282Z,7.20
2023-05-14T06:34:11.860Z,7.53
2023-05-14T06:36:39.407Z,6.93
2023-05-14T06:39:06.911Z,6.70
2023-05-14T06:41:35.380Z,7.18
2023-05-14T06:44:03.594Z,7.32
2023-05-14T06:46:31.107Z,7.20
2023-05-14T06:48:59.647Z,7.47
2023-05-14T06:51:27.275Z,7.70
2023-05-14T06:53:55.772Z,8.05
2023-05-14T06:56:23.413Z,7.88
2023-05-14T06:58:51.226Z,7.55
2023-05-14T07:01:18.760Z,7.30
2023-05-14T07:03:46.320Z,7.50
2023-05-14T07:06:14.040Z,9.15
2023-05-14T07:08:41.830Z,8.13
2023-05-14T07:11:09.331Z,8.05
2023-05-14T07:13:36.828Z,8.23
2023-05-14T07:16:04.907Z,8.55
2023-05-14T07:18:32.468Z,7.70
2023-05-14T07:20:59.989Z,8.32
2023-05-14T07:23:27.540Z,7.97
2023-05-14T07:25:55.143Z,8.80
2023-05-14T07:28:22.646Z,8.40
2023-05-14T07:30:50.137Z,8.90
2023-05-14T07:33:17.644Z,8.57
2023-05-14T07:35:45.182Z,8.55
2023-05-14T07:38:12.712Z,8.40
2023-05-14T07:40:40.218Z,9.10
2023-05-14T07:43:07.799Z,8.52
2023-05-14T07:45:37.853Z,8.38
2023-05-14T07:48:06.056Z,7.78
2023-05-14T07:50:33.739Z,7.72
2023-05-14T07:53:01.212Z,8.65
2023-05-14T07:55:28.701Z,8.27
2023-05-14T07:57:56.219Z,8.95
2023-05-14T08:00:23.867Z,8.70
2023-05-14T08:02:51.860Z,8.38
2023-05-14T08:05:19.814Z,8.10
2023-05-14T08:07:47.439Z,7.63
2023-05-14T08:10:15.129Z,8.50
2023-05-14T08:12:42.850Z,9.05
2023-05-14T08:15:10.946Z,8.73
2023-05-14T08:17:38.516Z,9.48
2023-05-14T08:20:07.433Z,7.90
2023-05-14T08:22:34.966Z,7.65
2023-05-14T08:25:03.783Z,8.95
2023-05-14T08:27:31.247Z,9.48
2023-05-14T08:29:58.797Z,8.68
2023-05-14T08:32:26.332Z,8.55
2023-05-14T08:34:53.836Z,8.38
2023-05-14T08:37:21.387Z,8.18
2023-05-14T08:39:49.326Z,9.15
2023-05-14T08:42:21.826Z,9.30
2023-05-14T08:44:53.370Z,8.88
2023-05-14T08:47:23.842Z,8.68
2023-05-14T08:49:59.570Z,8.63
2023-05-14T08:52:27.255Z,8.82
2023-05-14T08:54:57.364Z,9.45
2023-05-14T08:57:26.443Z,8.68
2023-05-14T08:59:54.205Z,8.70
2023-05-14T09:02:27.328Z,8.43
2023-05-14T09:04:58.805Z,8.43
2023-05-14T09:07:27.304Z,8.85
2023-05-14T09:09:55.575Z,8.68
2023-05-14T09:12:23.138Z,8.32
2023-05-14T09:14:51.305Z,9.20
2023-05-14T09:17:19.615Z,8.23
2023-05-14T09:19:49.198Z,8.77
2023-05-14T09:22:19.540Z,7.72
2023-05-14T09:25:01.319Z,9.52
2023-05-14T09:27:31.678Z,8.68
2023-05-14T09:30:07.345Z,8.57
2023-05-14T09:32:40.026Z,8.32
2023-05-14T09:35:18.251Z,8.07
2023-05-14T09:37:54.322Z,7.72
2023-05-14T09:40:24.372Z,7.78
2023-05-14T09:42:52.233Z,7.55
2023-05-14T09:45:19.804Z,8.50
2023-05-14T09:47:47.607Z,8.07
2023-05-14T09:50:15.266Z,7.50
2023-05-14T09:52:42.782Z,7.18
2023-05-14T09:55:10.555Z,8.25
2023-05-14T09:57:38.295Z,8.65
2023-05-14T10:00:08.715Z,8.80
2023-05-14T10:02:38.517Z,7.10
2023-05-14T10:05:07.683Z,7.80
2023-05-14T10:07:47.832Z,6.18
2023-05-14T10:10:23.950Z,7.20
2023-05-14T10:13:04.179Z,6.68
2023-05-14T10:15:40.617Z,6.22
2023-05-14T10:18:12.909Z,6.95
2023-05-14T10:20:41.333Z,5.75
2023-05-14T10:23:09.432Z,6.25
2023-05-14T10:25:37.479Z,6.00
2023-05-14T10:28:05.974Z,6.05
2023-05-14T10:30:33.590Z,5.78
2023-05-14T10:33:15.469Z,5.55
2023-05-14T10:36:02.839Z,6.32
2023-05-14T10:42:32.489Z,6.65
2023-05-14T10:47:30.963Z,6.75
2023-05-14T10:50:01.873Z,7.75
2023-05-14T10:52:29.988Z,6.97
2023-05-14T10:55:02.853Z,5.80
2023-05-14T11:00:02.802Z,6.72
2023-05-14T11:02:33.220Z,6.80
2023-05-14T11:05:08.024Z,6.85
2023-05-14T11:07:49.929Z,6.45
2023-05-14T11:10:22.119Z,7.00
2023-05-14T11:12:51.384Z,6.45
2023-05-14T11:15:22.037Z,5.97
2023-05-14T11:17:51.141Z,5.45
2023-05-14T11:20:20.180Z,5.90
2023-05-14T11:22:51.482Z,5.90
2023-05-14T11:25:19.370Z,5.65
2023-05-14T11:27:47.943Z,5.95
2023-05-14T11:30:18.527Z,5.50
2023-05-14T11:32:48.046Z,5.15
2023-05-14T11:35:17.057Z,5.35
2023-05-14T11:37:52.200Z,5.70
2023-05-14T11:40:20.106Z,5.22
2023-05-14T11:42:50.714Z,4.97
2023-05-14T11:45:26.624Z,5.35
2023-05-14T11:47:57.176Z,5.57
2023-05-14T11:50:24.966Z,4.57
2023-05-14T11:52:57.138Z,5.03
2023-05-14T11:55:24.840Z,5.80
2023-05-14T11:57:52.422Z,4.88
2023-05-14T12:00:22.096Z,4.75
2023-05-14T12:02:50.160Z,4.93
2023-05-14T12:05:19.529Z,5.00
2023-05-14T12:07:47.977Z,5.38
2023-05-14T12:10:15.670Z,4.72
2023-05-14T12:12:47.485Z,4.70
2023-05-14T12:15:19.230Z,4.95
2023-05-14T12:17:51.851Z,5.40
2023-05-14T12:20:19.940Z,5.57
2023-05-14T12:22:47.527Z,5.85
2023-05-14T12:25:15.042Z,5.30
2023-05-14T12:27:44.863Z,5.40
2023-05-14T12:30:21.255Z,5.22
2023-05-14T12:32:52.472Z,5.22
2023-05-14T12:35:22.444Z,4.85
2023-05-14T12:37:50.365Z,5.05
2023-05-14T12:40:17.977Z,5.25
2023-05-14T12:42:45.656Z,4.85
2023-05-14T12:45:13.151Z,4.55
2023-05-14T12:47:40.844Z,5.13
2023-05-14T12:50:08.946Z,5.03
2023-05-14T12:52:39.312Z,5.15
2023-05-14T12:55:09.349Z,4.88
2023-05-14T12:57:38.922Z,5.15
2023-05-14T13:00:13.001Z,4.63
2023-05-14T13:02:43.458Z,4.43
2023-05-14T13:05:12.445Z,5.32
2023-05-14T13:07:40.675Z,5.20
2023-05-14T13:10:09.110Z,4.68
2023-05-14T13:12:36.662Z,4.70
2023-05-14T13:15:05.307Z,4.13
2023-05-14T13:17:33.061Z,4.55
2023-05-14T13:20:00.626Z,4.63
2023-05-14T13:22:28.172Z,4.53
2023-05-14T13:24:55.760Z,5.00
2023-05-14T13:27:23.290Z,4.38
2023-05-14T13:29:50.831Z,3.85
2023-05-14T13:32:18.416Z,4.28
2023-05-14T13:34:46.308Z,4.43
2023-05-14T13:37:14.162Z,3.80
2023-05-14T13:39:41.779Z,4.68
2023-05-14T13:42:09.275Z,4.28
2023-05-14T13:44:36.990Z,4.35
2023-05-14T13:47:04.901Z,4.80
2023-05-14T13:49:32.542Z,4.53
2023-05-14T13:52:00.325Z,4.50
2023-05-14T13:54:27.946Z,3.63
2023-05-14T13:56:56.093Z,4.50
2023-05-14T13:59:23.971Z,3.67
2023-05-14T14:01:51.966Z,3.88
2023-05-14T14:04:20.087Z,4.30
2023-05-14T14:06:47.614Z,4.82
2023-05-14T14:09:15.388Z,4.30
2023-05-14T14:11:42.990Z,4.45
2023-05-14T14:14:10.593Z,4.35
2023-05-14T14:16:38.335Z,4.25
2023-05-14T14:19:06.810Z,4.13
2023-05-14T14:21:35.251Z,4.55
2023-05-14T14:24:02.930Z,4.65
2023-05-14T14:26:30.477Z,5.55
2023-05-14T14:28:58.384Z,4.85
2023-05-14T14:31:25.946Z,4.28
2023-05-14T14:33:53.545Z,4.35
2023-05-14T14:36:21.091Z,4.38
2023-05-14T14:38:48.589Z,3.63
2023-05-14T14:41:16.520Z,3.72
2023-05-14T14:43:44.164Z,4.05
2023-05-14T14:46:11.722Z,3.90
2023-05-14T14:48:39.721Z,3.75
2023-05-14T14:51:08.294Z,4.15
2023-05-14T14:53:37.228Z,3.97
2023-05-14T14:56:06.562Z,4.82
2023-05-14T14:58:34.122Z,4.60
2023-05-14T15:01:01.698Z,4.68
2023-05-14T15:03:29.512Z,3.53
2023-05-14T15:05:57.281Z,3.75
2023-05-14T15:08:27.465Z,3.65
2023-05-14T15:10:56.668Z,3.78
2023-05-14T15:13:24.718Z,3.25
2023-05-14T15:15:52.860Z,3.40
2023-05-14T15:18:20.618Z,3.97
2023-05-14T15:20:48.510Z,3.60
2023-05-14T15:23:16.276Z,3.47
2023-05-14T15:25:44.369Z,3.15
2023-05-14T15:28:11.992Z,3.35
2023-05-14T15:30:39.570Z,3.75
2023-05-14T15:33:10.873Z,3.75
2023-05-14T15:35:39.129Z,3.63
2023-05-14T15:38:07.157Z,3.17
2023-05-14T15:40:35.148Z,4.03
2023-05-14T15:43:03.024Z,3.45
2023-05-14T15:45:31.127Z,3.30
2023-05-14T15:47:58.659Z,3.25
2023-05-14T15:50:27.244Z,3.00
2023-05-14T15:52:54.874Z,3.67
2023-05-14T15:55:22.493Z,3.15
2023-05-14T15:57:49.993Z,3.00
2023-05-14T16:00:17.901Z,3.58
2023-05-14T16:02:45.719Z,3.03
2023-05-14T16:05:14.752Z,2.60
2023-05-14T16:07:42.963Z,3.45
2023-05-14T16:10:11.099Z,3.42
2023-05-14T16:12:38.605Z,3.15
2023-05-14T16:15:07.929Z,3.22
2023-05-14T16:17:35.729Z,3.75
2023-05-14T16:20:04.851Z,3.65
2023-05-14T16:22:34.476Z,3.75
2023-05-14T16:25:03.546Z,3.95
2023-05-14T16:27:31.619Z,3.70
2023-05-14T16:29:59.216Z,3.60
2023-05-14T16:32:27.565Z,3.53
2023-05-14T16:34:56.284Z,3.05
2023-05-14T16:37:24.134Z,3.65
2023-05-14T16:39:51.692Z,3.35
2023-05-14T16:42:19.386Z,3.90
2023-05-14T16:44:46.868Z,3.47
2023-05-14T16:47:14.368Z,3.40
2023-05-14T16:49:41.859Z,3.63
2023-05-14T16:52:09.349Z,3.55
2023-05-14T16:54:36.958Z,3.63
2023-05-14T16:57:05.890Z,3.90
2023-05-14T16:59:33.573Z,3.53
2023-05-14T17:02:01.290Z,3.47
2023-05-14T17:04:29.226Z,4.00
2023-05-14T17:06:57.331Z,3.65
2023-05-14T17:09:24.844Z,4.43
2023-05-14T17:11:52.468Z,3.47
2023-05-14T17:14:19.943Z,3.85
2023-05-14T17:16:47.505Z,4.20
2023-05-14T17:19:15.018Z,4.10
2023-05-14T17:21:42.563Z,4.32
2023-05-14T17:24:10.057Z,5.07
2023-05-14T17:26:37.752Z,4.55
2023-05-14T17:29:05.276Z,4.38
2023-05-14T17:31:32.823Z,4.82
2023-05-14T17:34:00.671Z,5.00
2023-05-14T17:36:28.607Z,6.22
2023-05-14T17:38:56.184Z,5.90
2023-05-14T17:41:23.871Z,7.05
2023-05-14T17:43:52.435Z,4.97
2023-05-14T17:46:20.469Z,4.28
2023-05-14T17:48:48.062Z,4.95
2023-05-14T17:51:15.622Z,4.68
2023-05-14T17:53:43.179Z,4.90
2023-05-14T17:56:10.786Z,4.65
2023-05-14T17:58:38.467Z,4.55
2023-05-14T18:01:05.972Z,4.45
2023-05-14T18:03:33.763Z,4.70
2023-05-14T18:06:01.411Z,4.22
2023-05-14T18:08:28.892Z,4.68
2023-05-14T18:10:56.456Z,4.10
2023-05-14T18:13:23.971Z,3.42
2023-05-14T18:15:54.093Z,4.07
2023-05-14T18:18:23.526Z,4.88
2023-05-14T18:20:51.989Z,4.28
2023-05-14T18:23:19.510Z,4.20
2023-05-14T18:25:48.123Z,4.35
2023-05-14T18:28:15.904Z,4.43
2023-05-14T18:30:43.559Z,4.22
2023-05-14T18:33:11.312Z,4.10
2023-05-14T18:35:38.961Z,4.10
2023-05-14T18:38:08.045Z,4.43
2023-05-14T18:40:35.604Z,4.65
2023-05-14T18:43:03.112Z,3.85
2023-05-14T18:45:31.237Z,4.13
2023-05-14T18:47:58.859Z,4.28
2023-05-14T18:50:26.381Z,4.10
2023-05-14T18:52:53.896Z,3.60
2023-05-14T18:55:21.420Z,4.80
2023-05-14T18:57:49.105Z,4.25
2023-05-14T19:00:16.956Z,3.75
2023-05-14T19:02:44.664Z,4.00
2023-05-14T19:05:12.316Z,4.07
2023-05-14T19:07:40.872Z,3.45
2023-05-14T19:10:09.681Z,3.92
2023-05-14T19:12:37.276Z,3.53
2023-05-14T19:15:05.606Z,4.70
2023-05-14T19:17:33.492Z,4.07
2023-05-14T19:20:01.004Z,3.88
2023-05-14T19:22:28.520Z,4.45
2023-05-14T19:24:56.022Z,4.13
2023-05-14T19:27:24.129Z,4.18
2023-05-14T19:29:51.680Z,4.63
2023-05-14T19:32:19.165Z,3.45
2023-05-14T19:34:46.923Z,4.15
2023-05-14T19:37:14.518Z,4.43
2023-05-14T19:39:42.045Z,4.30
2023-05-14T19:42:09.539Z,4.20
2023-05-14T19:44:37.202Z,4.35
2023-05-14T19:47:05.250Z,4.53
2023-05-14T19:49:32.801Z,3.90
2023-05-14T19:52:00.325Z,4.65
2023-05-14T19:54:27.788Z,4.60
2023-05-14T19:56:55.322Z,3.92
2023-05-14T19:59:23.111Z,4.13
2023-05-14T20:01:50.618Z,3.63
2023-05-14T20:04:19.689Z,4.03
2023-05-14T20:06:47.389Z,4.55
2023-05-14T20:09:15.372Z,4.80
2023-05-14T20:11:42.930Z,3.70
2023-05-14T20:14:10.413Z,4.60
2023-05-14T20:16:38.025Z,3.70
2023-05-14T20:19:06.438Z,3.88
2023-05-14T20:21:34.014Z,4.68
2023-05-14T20:24:01.687Z,4.25
2023-05-14T20:26:29.188Z,4.22
2023-05-14T20:28:56.702Z,3.85
2023-05-14T20:31:24.317Z,4.43
2023-05-14T20:33:51.947Z,4.53
2023-05-14T20:36:19.545Z,5.03
2023-05-14T20:38:47.688Z,4.03
2023-05-14T20:41:15.185Z,4.45
2023-05-14T20:43:42.673Z,4.28
2023-05-14T20:46:10.226Z,3.85
2023-05-14T20:48:37.808Z,4.38
2023-05-14T20:51:06.431Z,3.38
2023-05-14T20:53:34.251Z,4.07
2023-05-14T20:56:02.380Z,3.97
2023-05-14T20:58:30.033Z,3.85
2023-05-14T21:00:58.595Z,4.43
2023-05-14T21:03:26.896Z,4.38
2023-05-14T21:05:55.952Z,4.07
2023-05-14T21:08:23.465Z,4.50
2023-05-14T21:10:51.029Z,4.03
2023-05-14T21:13:18.543Z,4.78
2023-05-14T21:15:46.228Z,3.97
2023-05-14T21:18:13.759Z,4.70
2023-05-14T21:20:41.260Z,4.60
2023-05-14T21:23:08.744Z,4.35
2023-05-14T21:25:36.318Z,4.70
2023-05-14T21:28:03.883Z,4.40
2023-05-14T21:30:31.372Z,4.20
2023-05-14T21:32:58.926Z,3.70
2023-05-14T21:35:26.666Z,4.95
2023-05-14T21:37:54.456Z,4.00
2023-05-14T21:40:22.031Z,4.40
2023-05-14T21:42:50.118Z,4.65
2023-05-14T21:45:17.608Z,4.20
2023-05-14T21:47:45.280Z,3.95
2023-05-14T21:50:13.720Z,4.03
2023-05-14T21:52:41.469Z,3.92
2023-05-14T21:55:09.397Z,3.90
2023-05-14T21:57:37.090Z,4.30
2023-05-14T22:00:08.364Z,3.75
2023-05-14T22:02:35.920Z,4.15
2023-05-14T22:05:03.707Z,3.83
2023-05-14T22:07:32.854Z,4.10
2023-05-14T22:10:00.345Z,3.80
2023-05-14T22:12:27.988Z,3.50
2023-05-14T22:14:55.460Z,4.55
2023-05-14T22:17:23.203Z,3.95
2023-05-14T22:19:50.801Z,3.47
2023-05-14T22:22:18.345Z,3.95
2023-05-14T22:24:45.880Z,3.75
2023-05-14T22:27:13.486Z,3.17
2023-05-14T22:29:41.006Z,3.60
2023-05-14T22:32:10.104Z,3.58
2023-05-14T22:34:37.731Z,3.90
2023-05-14T22:37:05.858Z,3.85
2023-05-14T22:39:33.456Z,3.35
2023-05-14T22:42:00.995Z,3.70
2023-05-14T22:44:29.889Z,4.05
2023-05-14T22:46:57.849Z,3.75
2023-05-14T22:49:25.560Z,3.33
2023-05-14T22:51:54.201Z,4.38
2023-05-14T22:54:21.739Z,3.58
2023-05-14T22:56:49.572Z,4.22
2023-05-14T22:59:17.369Z,3.35
2023-05-14T23:01:44.996Z,3.40
2023-05-14T23:04:12.700Z,3.30
2023-05-14T23:06:40.849Z,3.58
2023-05-14T23:09:08.497Z,3.90
2023-05-14T23:11:35.981Z,3.30
2023-05-14T23:14:03.454Z,3.42
2023-05-14T23:16:31.811Z,3.50
2023-05-14T23:18:59.435Z,3.10
2023-05-14T23:21:27.088Z,3.28
2023-05-14T23:23:54.574Z,4.40
2023-05-14T23:26:22.082Z,3.70
2023-05-14T23:28:49.608Z,3.78
2023-05-14T23:31:17.125Z,3.80
2023-05-14T23:33:44.726Z,3.92
2023-05-14T23:36:12.425Z,4.00
2023-05-14T23:38:40.717Z,4.10
2023-05-14T23:41:08.312Z,3.95
2023-05-14T23:43:35.919Z,4.03
2023-05-14T23:46:03.924Z,3.95
2023-05-14T23:48:31.549Z,3.75
2023-05-14T23:50:59.023Z,3.42
2023-05-14T23:53:26.531Z,3.20
2023-05-14T23:55:54.033Z,3.45
2023-05-14T23:58:21.639Z,3.38
